Time;durP1;ratioP1;P1;durP2;ratioP2;P2;SDS_P1;SDS_P2;PMS_P1;PMS_P2;Temp;Humidity;BMP_temperature;BMP_pressure;BME280_temperature;BME280_humidity;BME280_pressure;Samples;Min_cycle;Max_cycle;Signal;HPM_P1;HPM_P2
2023/06/10 00:01:28;;;;;;;28.90;24.80;;;;;;;16.08;100.00;98711.61;271732;1265;23414;-86
2023/06/10 00:07:55;;;;;;;29.80;25.80;;;;;;;16.11;100.00;98714.71;270455;1265;24709;-87
2023/06/10 00:14:00;;;;;;;31.80;25.30;;;;;;;16.12;100.00;98714.61;270774;1265;24241;-88
2023/06/10 00:20:12;;;;;;;28.30;24.10;;;;;;;16.12;100.00;98707.59;270224;1262;24216;-86
2023/06/10 00:26:34;;;;;;;32.50;27.40;;;;;;;16.14;100.00;98709.06;270170;1265;22536;-86
2023/06/10 00:32:36;;;;;;;36.70;30.40;;;;;;;16.10;100.00;98717.17;270464;1265;22418;-87
2023/06/10 00:38:40;;;;;;;33.00;28.00;;;;;;;16.07;100.00;98723.45;272477;1265;22331;-87
2023/06/10 00:45:02;;;;;;;30.30;26.50;;;;;;;16.07;100.00;98725.58;273872;1265;22303;-87
2023/06/10 00:51:34;;;;;;;33.00;27.80;;;;;;;16.13;100.00;98725.73;274115;1265;22300;-87
2023/06/10 00:57:37;;;;;;;32.20;26.70;;;;;;;16.16;100.00;98732.14;273975;1257;23184;-87
2023/06/10 01:03:42;;;;;;;32.10;28.20;;;;;;;16.18;100.00;98741.02;273936;1265;24311;-87
2023/06/10 01:09:53;;;;;;;32.70;26.90;;;;;;;16.25;100.00;98738.31;273383;1265;22704;-87
2023/06/10 01:16:16;;;;;;;31.80;26.90;;;;;;;16.31;100.00;98741.30;273832;1265;22953;-86
2023/06/10 01:22:18;;;;;;;26.40;22.70;;;;;;;16.36;100.00;98742.80;271643;1265;23101;-87
2023/06/10 01:29:04;;;;;;;28.90;25.00;;;;;;;16.39;100.00;98738.97;270381;1265;23319;-86
2023/06/10 01:35:10;;;;;;;28.30;25.30;;;;;;;16.40;100.00;98736.58;271216;1265;24195;-86
2023/06/10 01:41:14;;;;;;;28.50;25.40;;;;;;;16.41;100.00;98731.89;270168;1265;22517;-86
2023/06/10 01:47:17;;;;;;;30.50;27.00;;;;;;;16.41;100.00;98732.14;270005;1265;25416;-86
2023/06/10 01:53:27;;;;;;;28.40;25.30;;;;;;;16.39;100.00;98737.69;270030;1250;22340;-86
2023/06/10 01:59:29;;;;;;;30.10;26.30;;;;;;;16.37;100.00;98739.61;270034;1265;22569;-86
2023/06/10 02:05:46;;;;;;;25.90;23.30;;;;;;;16.31;100.00;98739.56;271296;1265;23711;-86
2023/06/10 02:11:52;;;;;;;27.50;24.60;;;;;;;16.26;100.00;98738.22;270407;1265;22513;-86
2023/06/10 02:17:57;;;;;;;29.90;24.70;;;;;;;16.27;100.00;98737.73;270804;1265;23218;-86
2023/06/10 02:24:00;;;;;;;28.90;25.30;;;;;;;16.23;100.00;98737.00;270874;1256;22711;-86
2023/06/10 02:30:04;;;;;;;32.00;24.20;;;;;;;16.20;100.00;98741.94;271013;1265;22993;-86
2023/06/10 02:36:24;;;;;;;28.70;24.50;;;;;;;16.21;100.00;98742.80;272947;1265;22203;-86
2023/06/10 02:42:26;;;;;;;29.50;23.70;;;;;;;16.22;100.00;98744.04;272190;1265;22405;-86
2023/06/10 02:48:28;;;;;;;29.60;26.30;;;;;;;16.22;100.00;98747.60;273998;1265;22337;-86
2023/06/10 02:54:51;;;;;;;28.30;24.30;;;;;;;16.20;100.00;98750.39;274039;1265;22343;-86
2023/06/10 03:00:53;;;;;;;27.40;24.50;;;;;;;16.21;100.00;98755.04;273996;1265;22301;-86
2023/06/10 03:07:18;;;;;;;28.50;23.50;;;;;;;16.27;100.00;98757.52;272285;1265;22416;-86
2023/06/10 03:13:21;;;;;;;30.80;24.40;;;;;;;16.32;100.00;98761.65;273926;1265;22329;-86
2023/06/10 03:19:43;;;;;;;24.90;22.40;;;;;;;16.34;100.00;98762.31;272157;1265;22628;-85
2023/06/10 03:26:06;;;;;;;26.70;23.80;;;;;;;16.38;100.00;98767.30;273102;1265;23164;-86
2023/06/10 03:32:08;;;;;;;26.70;23.90;;;;;;;16.41;100.00;98771.76;270964;1266;23230;-85
2023/06/10 03:38:26;;;;;;;30.00;24.50;;;;;;;16.40;100.00;98771.39;271253;1265;25220;-87
2023/06/10 03:44:29;;;;;;;;;;;;;;;16.40;100.00;98770.03;271286;1265;22450;-88
2023/06/10 03:50:31;;;;;;;25.00;22.40;;;;;;;16.40;100.00;98772.71;270534;1265;22579;-87
2023/06/10 03:56:33;;;;;;;30.90;24.60;;;;;;;16.41;100.00;98775.86;273370;1265;22714;-87
2023/06/10 04:02:59;;;;;;;26.60;23.50;;;;;;;16.42;100.00;98781.67;273965;1265;22482;-87
2023/06/10 04:09:26;;;;;;;26.30;23.50;;;;;;;16.45;100.00;98783.63;273736;1265;22417;-86
2023/06/10 04:15:29;;;;;;;29.10;23.60;;;;;;;16.48;100.00;98789.75;274107;1265;22329;-86
2023/06/10 04:21:32;;;;;;;29.80;23.60;;;;;;;16.50;100.00;98787.43;274044;1265;22365;-86
2023/06/10 04:28:14;;;;;;;33.10;24.80;;;;;;;16.53;100.00;98788.40;273955;1266;22318;-86
2023/06/10 04:34:17;;;;;;;31.80;24.60;;;;;;;16.57;100.00;98788.81;272906;1265;25398;-87
2023/06/10 04:40:19;;;;;;;28.90;23.90;;;;;;;16.60;100.00;98792.72;272785;1265;22423;-88
2023/06/10 04:46:24;;;;;;;27.00;24.00;;;;;;;16.62;100.00;98799.00;273554;1265;674265;-87
2023/06/10 04:52:27;;;;;;;30.00;24.00;;;;;;;16.66;100.00;98805.88;273841;1265;22384;-86
2023/06/10 04:58:32;;;;;;;29.60;23.50;;;;;;;16.70;100.00;98804.33;272110;1266;22560;-86
2023/06/10 05:04:53;;;;;;;25.90;22.00;;;;;;;16.73;100.00;98806.39;270438;1264;22209;-87
2023/06/10 05:10:56;;;;;;;30.00;23.40;;;;;;;16.75;100.00;98812.92;270036;1265;23035;-87
2023/06/10 05:16:58;;;;;;;25.10;21.40;;;;;;;16.75;100.00;98823.83;270567;1252;22647;-86
2023/06/10 05:23:01;;;;;;;26.00;21.00;;;;;;;16.77;100.00;98826.73;270931;1265;22296;-86
2023/06/10 05:29:09;;;;;;;23.40;20.60;;;;;;;16.79;100.00;98824.39;270871;1266;22226;-85
2023/06/10 05:35:47;;;;;;;26.40;20.30;;;;;;;16.83;100.00;98822.89;273506;1266;22581;-86
2023/06/10 05:41:49;;;;;;;23.50;19.70;;;;;;;16.90;100.00;98825.63;273869;1265;22467;-86
2023/06/10 05:47:59;;;;;;;23.50;20.00;;;;;;;16.96;100.00;98828.20;272172;1265;22523;-84
2023/06/10 05:54:04;;;;;;;21.60;17.50;;;;;;;17.03;100.00;98830.69;270852;1265;22631;-87
2023/06/10 06:00:07;;;;;;;19.90;16.80;;;;;;;17.10;100.00;98838.79;270563;1265;24268;-87
2023/06/10 06:06:14;;;;;;;19.70;16.70;;;;;;;17.15;100.00;98839.08;271639;1265;22544;-85
2023/06/10 06:12:16;;;;;;;19.90;15.40;;;;;;;17.20;100.00;98839.33;272220;1266;22648;-87
2023/06/10 06:18:18;;;;;;;19.70;13.80;;;;;;;17.30;100.00;98840.25;271222;1265;22534;-87
2023/06/10 06:24:20;;;;;;;15.20;13.60;;;;;;;17.40;100.00;98842.84;270711;1265;22548;-86
2023/06/10 06:30:24;;;;;;;18.70;13.70;;;;;;;17.47;100.00;98844.55;272895;1265;23275;-85
2023/06/10 06:36:51;;;;;;;16.00;12.70;;;;;;;17.56;100.00;98847.77;273856;1266;22317;-86
2023/06/10 06:42:54;;;;;;;13.30;11.30;;;;;;;17.69;100.00;98853.53;273567;1265;24171;-87
2023/06/10 06:49:23;;;;;;;13.80;10.80;;;;;;;17.87;100.00;98862.96;271782;1265;23478;-87
2023/06/10 06:55:30;;;;;;;13.90;9.70;;;;;;;18.08;100.00;98867.54;273411;1265;22349;-87
2023/06/10 07:01:34;;;;;;;12.30;10.10;;;;;;;18.36;100.00;98872.77;273025;1266;22992;-88
2023/06/10 07:07:36;;;;;;;13.00;9.70;;;;;;;18.60;100.00;98880.89;272155;1266;23711;-86
2023/06/10 07:13:55;;;;;;;12.30;9.80;;;;;;;18.72;100.00;98880.23;272870;1266;24247;-87
2023/06/10 07:19:59;;;;;;;9.00;8.10;;;;;;;18.81;100.00;98883.58;273412;1265;22404;-87
2023/06/10 07:26:18;;;;;;;10.50;9.00;;;;;;;18.94;100.00;98890.23;273523;1266;22891;-87
2023/06/10 07:32:36;;;;;;;10.10;8.60;;;;;;;19.12;100.00;98898.05;274069;1266;22317;-86
2023/06/10 07:38:43;;;;;;;11.60;9.10;;;;;;;19.32;100.00;98898.52;274089;1267;22358;-89
2023/06/10 07:45:03;;;;;;;9.70;7.90;;;;;;;19.47;100.00;98901.99;272651;1266;22553;-86
2023/06/10 07:51:05;;;;;;;9.40;7.90;;;;;;;19.48;100.00;98902.45;273273;1266;22416;-86
2023/06/10 07:57:10;;;;;;;10.60;8.50;;;;;;;19.51;100.00;98905.39;271863;1267;23041;-87
2023/06/10 08:03:13;;;;;;;10.00;8.30;;;;;;;19.55;100.00;98909.81;271725;1267;22354;-87
2023/06/10 08:09:32;;;;;;;12.10;8.90;;;;;;;19.64;100.00;98911.30;273902;1267;22332;-87
2023/06/10 08:15:34;;;;;;;10.20;7.70;;;;;;;19.77;100.00;98912.00;273955;1269;22176;-87
2023/06/10 08:21:37;;;;;;;8.90;7.50;;;;;;;20.00;100.00;98917.52;272221;1266;23756;-87
2023/06/10 08:27:42;;;;;;;9.80;7.30;;;;;;;20.21;100.00;98922.69;270383;1271;23322;-86
2023/06/10 08:33:44;;;;;;;11.90;7.80;;;;;;;20.31;100.00;98922.66;269832;1267;22600;-87
2023/06/10 08:39:48;;;;;;;9.10;7.90;;;;;;;20.34;100.00;98919.14;270382;1267;22605;-87
2023/06/10 08:45:53;;;;;;;9.90;7.30;;;;;;;20.45;100.00;98918.48;270547;1267;22590;-88
2023/06/10 08:52:17;;;;;;;7.20;6.40;;;;;;;20.58;100.00;98919.52;272354;1267;22565;-87
2023/06/10 08:58:20;;;;;;;7.50;6.80;;;;;;;20.67;100.00;98923.20;270857;1266;22520;-87
2023/06/10 09:04:52;;;;;;;8.30;7.30;;;;;;;20.66;100.00;98925.79;271781;1267;22430;-88
2023/06/10 09:11:15;;;;;;;9.40;7.40;;;;;;;20.80;100.00;98918.52;270867;1267;22546;-87
2023/06/10 09:17:18;;;;;;;10.70;7.50;;;;;;;21.15;100.00;98909.92;270823;1268;24224;-87
2023/06/10 09:23:41;;;;;;;9.80;7.00;;;;;;;21.61;100.00;98907.98;270016;1266;22606;-88
2023/06/10 09:29:54;;;;;;;9.50;6.60;;;;;;;21.85;99.24;98908.68;270187;1271;22520;-90
2023/06/10 09:36:01;;;;;;;8.10;6.50;;;;;;;21.98;98.25;98903.55;271605;1266;22929;-87
2023/06/10 09:42:24;;;;;;;10.10;6.10;;;;;;;22.27;97.96;98899.07;272829;1266;22510;-90
2023/06/10 09:48:26;;;;;;;7.40;5.60;;;;;;;22.46;96.07;98903.78;270892;1253;25192;-87
2023/06/10 09:54:33;;;;;;;7.20;5.40;;;;;;;22.59;94.60;98903.00;272279;1267;22229;-86
2023/06/10 10:00:37;;;;;;;8.00;5.90;;;;;;;22.67;93.34;98903.98;273857;1267;23503;-87
2023/06/10 10:06:39;;;;;;;6.00;5.20;;;;;;;22.62;92.37;98901.94;273628;1270;22162;-89
2023/06/10 10:12:41;;;;;;;6.30;5.70;;;;;;;22.35;91.45;98903.57;273674;1266;22320;-88
2023/06/10 10:18:55;;;;;;;7.40;5.50;;;;;;;22.08;90.72;98905.30;273165;1266;23397;-88
2023/06/10 10:25:30;;;;;;;9.70;5.70;;;;;;;21.78;89.91;98915.60;271105;1270;24314;-89
2023/06/10 10:31:37;;;;;;;6.50;5.70;;;;;;;21.38;89.19;98918.23;271230;1266;25284;-87
2023/06/10 10:37:40;;;;;;;6.30;5.70;;;;;;;21.08;89.03;98920.77;273970;1273;23169;-88
2023/06/10 10:43:44;;;;;;;5.50;4.40;;;;;;;20.82;88.59;98920.70;274036;1266;22320;-88
2023/06/10 10:49:50;;;;;;;6.90;5.00;;;;;;;20.70;88.50;98915.98;273038;1267;22548;-87
2023/06/10 10:56:03;;;;;;;;;;;;;;;20.77;89.15;98914.80;270277;1271;25472;-86
2023/06/10 11:02:05;;;;;;;8.80;5.10;;;;;;;20.96;89.31;98916.45;270784;1267;23708;-88
2023/06/10 11:08:09;;;;;;;5.80;4.40;;;;;;;21.34;89.18;98918.38;270485;1265;22590;-87
2023/06/10 11:14:14;;;;;;;8.00;5.00;;;;;;;21.41;88.23;98913.54;272838;1266;22338;-90
2023/06/10 11:20:43;;;;;;;5.60;4.70;;;;;;;21.36;88.04;98909.50;272051;1266;22510;-88
2023/06/10 11:26:46;;;;;;;5.50;4.90;;;;;;;21.66;88.33;98910.69;272257;1265;22504;-89
2023/06/10 11:32:52;;;;;;;6.50;4.80;;;;;;;22.09;88.82;98907.24;270646;1268;24775;-88
2023/06/10 11:39:05;;;;;;;5.10;4.40;;;;;;;22.70;88.11;98902.56;270970;1265;22500;-88
2023/06/10 11:45:08;;;;;;;5.60;4.50;;;;;;;22.39;87.28;98914.17;271000;1266;22580;-88
2023/06/10 11:51:13;;;;;;;5.60;4.40;;;;;;;22.02;87.06;98921.05;270227;1266;22537;-88
2023/06/10 11:57:17;;;;;;;6.80;5.30;;;;;;;21.85;87.03;98921.13;272314;1266;23660;-88
2023/06/10 12:03:22;;;;;;;8.00;5.50;;;;;;;21.68;87.20;98914.44;273534;1265;22317;-87
2023/06/10 12:09:24;;;;;;;7.10;6.40;;;;;;;21.52;87.34;98913.15;271859;1267;22615;-89
2023/06/10 12:15:28;;;;;;;6.30;4.80;;;;;;;21.46;87.11;98915.45;270124;1266;22698;-86
2023/06/10 12:21:35;;;;;;;5.80;4.10;;;;;;;21.37;86.74;98914.22;270572;1261;24176;-91
2023/06/10 12:27:53;;;;;;;5.20;4.40;;;;;;;21.32;86.57;98910.73;270423;1251;22521;-88
2023/06/10 12:34:10;;;;;;;5.20;3.60;;;;;;;21.43;85.48;98913.47;270439;1266;22539;-85
2023/06/10 12:40:15;;;;;;;4.70;3.60;;;;;;;21.71;85.15;98913.41;270505;1266;24340;-87
2023/06/10 12:46:21;;;;;;;4.50;3.90;;;;;;;21.89;84.34;98908.71;270182;1267;22552;-88
2023/06/10 12:52:24;;;;;;;6.60;3.90;;;;;;;21.90;84.10;98910.02;270926;1266;22531;-89
2023/06/10 12:58:26;;;;;;;6.00;3.10;;;;;;;21.77;83.18;98908.39;270339;1267;22503;-87
2023/06/10 13:04:31;;;;;;;5.90;3.50;;;;;;;21.79;82.13;98899.91;270482;1266;22557;-88
2023/06/10 13:10:37;;;;;;;3.70;3.00;;;;;;;21.94;79.60;98902.09;270950;1267;22666;-87
2023/06/10 13:17:01;;;;;;;5.40;3.00;;;;;;;22.03;78.13;98895.86;272937;1266;22990;-89
2023/06/10 13:23:06;;;;;;;3.10;2.80;;;;;;;22.15;78.02;98898.80;273674;1265;22722;-89
2023/06/10 13:29:14;;;;;;;8.40;3.00;;;;;;;22.23;77.81;98894.49;272134;1265;21920;-90
2023/06/10 13:35:16;;;;;;;4.40;3.20;;;;;;;22.15;76.55;98894.29;273011;1265;22607;-88
2023/06/10 13:41:18;;;;;;;5.30;3.30;;;;;;;22.17;77.12;98893.34;271098;1265;22567;-89
2023/06/10 13:47:20;;;;;;;3.40;2.70;;;;;;;22.30;76.51;98896.27;271560;1266;22209;-87
2023/06/10 13:53:35;;;;;;;5.70;3.10;;;;;;;22.36;76.24;98898.14;273423;1266;22327;-88
2023/06/10 13:59:42;;;;;;;5.00;3.10;;;;;;;22.45;76.13;98898.34;271953;1266;22571;-88
2023/06/10 14:06:07;;;;;;;5.60;3.40;;;;;;;22.22;75.36;98896.81;273333;1265;22353;-88
2023/06/10 14:12:10;;;;;;;4.10;2.60;;;;;;;22.04;75.80;98893.98;273454;1251;22542;-88
2023/06/10 14:18:35;;;;;;;4.20;2.40;;;;;;;21.89;75.52;98900.04;273560;1266;22304;-89
2023/06/10 14:24:48;;;;;;;4.30;2.50;;;;;;;21.75;75.40;98895.02;272950;1266;22204;-88
2023/06/10 14:30:50;;;;;;;4.70;2.60;;;;;;;21.90;74.96;98894.59;273132;1266;22336;-88
2023/06/10 14:36:52;;;;;;;3.60;2.60;;;;;;;21.99;74.02;98894.23;272843;1265;23442;-87
2023/06/10 14:43:09;;;;;;;3.90;2.90;;;;;;;22.00;74.03;98888.17;272879;1266;22440;-86
2023/06/10 14:49:18;;;;;;;6.40;3.00;;;;;;;22.04;73.94;98893.66;272692;1265;23017;-88
2023/06/10 14:55:20;;;;;;;;;;;;;;;21.90;74.09;98897.85;272103;1266;23755;-87
2023/06/10 15:01:23;;;;;;;4.50;2.60;;;;;;;21.87;74.13;98892.46;273364;1265;22282;-90
2023/06/10 15:07:25;;;;;;;5.20;2.70;;;;;;;21.83;73.81;98894.98;273475;1265;22607;-88
2023/06/10 15:13:37;;;;;;;5.60;2.40;;;;;;;21.86;73.78;98895.77;272448;1265;23219;-86
2023/06/10 15:19:39;;;;;;;6.10;2.70;;;;;;;21.84;73.43;98898.95;272429;1265;22516;-88
2023/06/10 15:25:58;;;;;;;2.90;2.50;;;;;;;21.75;73.11;98901.24;273730;1265;22283;-88
2023/06/10 15:32:20;;;;;;;4.50;2.70;;;;;;;21.64;73.06;98903.19;273441;1265;22536;-89
2023/06/10 15:38:23;;;;;;;5.10;2.60;;;;;;;21.64;73.16;98904.39;273641;1265;23598;-88
2023/06/10 15:44:26;;;;;;;3.10;2.40;;;;;;;21.57;73.16;98909.09;272806;1265;23876;-90
2023/06/10 15:50:31;;;;;;;2.90;2.40;;;;;;;21.45;72.91;98908.94;272906;1265;22514;-87
2023/06/10 15:56:33;;;;;;;3.30;2.30;;;;;;;21.49;72.74;98905.39;271910;1265;23281;-89
2023/06/10 16:02:35;;;;;;;4.40;2.60;;;;;;;21.61;72.25;98909.20;272454;1265;22625;-87
2023/06/10 16:08:37;;;;;;;5.00;2.60;;;;;;;21.58;71.18;98918.20;270997;1250;22518;-88
2023/06/10 16:14:40;;;;;;;6.10;2.80;;;;;;;21.50;71.89;98925.17;272322;1265;22219;-89
2023/06/10 16:20:42;;;;;;;3.80;2.40;;;;;;;21.40;71.59;98927.98;272395;1265;23766;-87
2023/06/10 16:26:44;;;;;;;5.50;2.80;;;;;;;21.14;71.96;98931.94;271707;1265;22321;-87
2023/06/10 16:32:46;;;;;;;5.00;2.90;;;;;;;20.95;72.22;98937.06;273497;1265;22503;-87
2023/06/10 16:38:47;;;;;;;4.10;2.90;;;;;;;20.74;72.50;98938.19;273490;1265;23879;-89
2023/06/10 16:44:51;;;;;;;4.10;3.40;;;;;;;20.53;73.00;98945.27;271818;1264;103219;-89
2023/06/10 16:50:53;;;;;;;4.80;3.30;;;;;;;20.40;73.53;98948.90;272932;1265;22530;-89
2023/06/10 16:57:05;;;;;;;3.60;2.80;;;;;;;20.37;74.21;98960.84;272891;1265;22527;-87
2023/06/10 17:03:10;;;;;;;3.80;3.50;;;;;;;20.26;74.42;98968.23;270524;1257;22695;-84
2023/06/10 17:09:12;;;;;;;4.50;3.60;;;;;;;20.04;74.71;98975.55;270770;1265;25425;-88
2023/06/10 17:15:35;;;;;;;3.90;3.20;;;;;;;19.86;75.11;98982.84;271278;1265;22359;-89
2023/06/10 17:21:36;;;;;;;4.10;3.20;;;;;;;19.72;75.41;98986.15;272265;1265;23723;-87
2023/06/10 17:27:38;;;;;;;4.60;3.50;;;;;;;19.59;75.38;98989.98;271520;1265;22571;-88
2023/06/10 17:33:40;;;;;;;4.50;3.40;;;;;;;19.44;75.71;98992.25;271105;1265;22483;-88
2023/06/10 17:39:43;;;;;;;6.40;3.30;;;;;;;19.32;75.97;99003.48;273508;1265;22880;-88
2023/06/10 17:45:45;;;;;;;4.60;3.80;;;;;;;19.21;76.33;99010.30;271867;1265;22539;-88
2023/06/10 17:52:03;;;;;;;4.50;3.70;;;;;;;19.11;76.85;99010.54;271489;1265;22550;-87
2023/06/10 17:58:07;;;;;;;4.40;3.60;;;;;;;19.04;77.34;99015.39;271090;1265;23072;-90
2023/06/10 18:04:19;;;;;;;4.60;4.10;;;;;;;18.95;78.07;99022.66;273112;1266;22409;-88
2023/06/10 18:10:23;;;;;;;7.40;4.00;;;;;;;18.85;78.48;99029.45;273339;1266;22403;-88
2023/06/10 18:16:26;;;;;;;7.70;4.20;;;;;;;18.75;78.96;99032.44;271931;1266;22547;-86
2023/06/10 18:22:49;;;;;;;5.00;3.60;;;;;;;18.63;79.43;99030.21;271023;1266;22571;-88
2023/06/10 18:29:10;;;;;;;5.60;3.70;;;;;;;18.53;79.89;99035.89;271318;1262;22613;-88
2023/06/10 18:35:12;;;;;;;6.80;3.70;;;;;;;18.45;80.11;99038.50;274100;1266;22457;-88
2023/06/10 18:41:36;;;;;;;5.20;3.70;;;;;;;18.38;80.42;99045.28;271479;1266;23170;-89
2023/06/10 18:47:44;;;;;;;4.40;4.00;;;;;;;18.29;80.58;99049.23;271995;1266;22952;-88
2023/06/10 18:53:47;;;;;;;4.60;4.10;;;;;;;18.21;81.05;99054.85;271716;1267;22985;-89
2023/06/10 18:59:55;;;;;;;8.70;4.60;;;;;;;18.12;81.64;99066.02;270657;1266;22489;-89
2023/06/10 19:06:02;;;;;;;6.10;4.10;;;;;;;18.01;82.08;99064.16;272917;1266;22402;-88
2023/06/10 19:12:12;;;;;;;6.50;4.40;;;;;;;17.88;82.50;99062.10;273751;1266;22322;-89
2023/06/10 19:18:19;;;;;;;6.50;4.30;;;;;;;17.75;82.92;99068.02;272952;1266;23356;-88
2023/06/10 19:24:22;;;;;;;5.00;4.50;;;;;;;17.64;83.43;99071.52;273634;1267;22368;-87
2023/06/10 19:30:36;;;;;;;7.70;4.10;;;;;;;17.55;83.91;99070.48;272569;1266;22307;-86
2023/06/10 19:37:10;;;;;;;7.60;4.40;;;;;;;17.46;84.53;99075.67;273061;1266;23048;-87
2023/06/10 19:43:12;;;;;;;5.90;4.90;;;;;;;17.36;85.09;99077.53;271676;1266;22499;-87
2023/06/10 19:49:16;;;;;;;6.00;5.10;;;;;;;17.27;85.63;99082.03;273344;1266;22340;-88
2023/06/10 19:55:18;;;;;;;7.20;5.20;;;;;;;17.17;86.01;99087.21;273767;1266;22318;-89
2023/06/10 20:01:20;;;;;;;7.00;5.40;;;;;;;17.08;86.42;99086.39;273703;1266;22529;-88
2023/06/10 20:07:30;;;;;;;10.80;6.00;;;;;;;17.00;86.96;99093.69;273777;1265;23230;-89
2023/06/10 20:13:37;;;;;;;6.60;5.80;;;;;;;16.93;87.40;99095.91;274073;1266;23171;-87
2023/06/10 20:19:54;;;;;;;7.40;6.10;;;;;;;16.85;87.98;99102.48;273628;1265;22259;-87
2023/06/10 20:25:57;;;;;;;9.30;6.50;;;;;;;16.80;88.45;99110.36;272913;1265;23247;-87
2023/06/10 20:31:59;;;;;;;8.40;6.70;;;;;;;16.76;88.97;99106.94;273592;1265;22402;-88
2023/06/10 20:38:17;;;;;;;7.90;6.40;;;;;;;16.71;89.43;99112.45;274052;1265;22310;-87
2023/06/10 20:44:21;;;;;;;7.00;6.30;;;;;;;16.63;89.88;99113.02;273436;1265;22526;-88
2023/06/10 20:50:22;;;;;;;7.50;6.70;;;;;;;16.56;90.37;99111.59;272386;1265;22555;-87
2023/06/10 20:56:29;;;;;;;9.50;7.10;;;;;;;16.49;90.91;99111.83;270504;1266;22562;-88
2023/06/10 21:02:54;;;;;;;8.70;7.60;;;;;;;16.43;91.46;99110.38;270582;1265;22517;-87
2023/06/10 21:09:05;;;;;;;11.80;7.10;;;;;;;16.33;91.92;99113.55;273778;1265;22374;-85
2023/06/10 21:15:08;;;;;;;9.50;7.60;;;;;;;16.21;92.40;99114.38;271995;1250;22527;-88
2023/06/10 21:21:11;;;;;;;9.20;7.40;;;;;;;16.13;92.96;99113.90;271322;1265;22647;-87
2023/06/10 21:27:15;;;;;;;9.60;8.60;;;;;;;16.10;93.47;99117.73;270282;1265;22543;-88
2023/06/10 21:33:17;;;;;;;13.50;9.00;;;;;;;16.13;94.13;99119.42;270472;1266;22491;-87
2023/06/10 21:39:21;;;;;;;12.50;7.10;;;;;;;16.18;94.37;99117.33;272594;1265;22363;-87
2023/06/10 21:45:23;;;;;;;8.40;7.60;;;;;;;16.21;94.44;99115.64;272698;1265;22559;-89
2023/06/10 21:51:25;;;;;;;12.80;8.60;;;;;;;16.25;94.52;99119.86;272331;1265;23847;-88
2023/06/10 21:57:27;;;;;;;11.80;8.30;;;;;;;16.29;94.60;99124.80;270526;1265;25551;-88
2023/06/10 22:03:29;;;;;;;10.20;8.60;;;;;;;16.31;94.70;99124.30;271746;1268;22218;-87
2023/06/10 22:09:33;;;;;;;8.30;7.40;;;;;;;16.32;94.76;99125.02;272417;1265;22521;-86
2023/06/10 22:15:35;;;;;;;9.00;7.20;;;;;;;16.31;94.82;99121.46;272704;1266;22517;-87
2023/06/10 22:21:54;;;;;;;9.90;7.50;;;;;;;16.31;94.99;99121.54;272766;1266;22308;-88
2023/06/10 22:27:56;;;;;;;8.50;7.10;;;;;;;16.29;95.24;99124.48;272155;1266;23478;-88
2023/06/10 22:33:58;;;;;;;8.60;7.40;;;;;;;16.26;95.38;99125.54;272410;1265;22688;-87
2023/06/10 22:40:01;;;;;;;8.70;7.40;;;;;;;16.21;95.55;99124.16;273084;1266;23364;-88
2023/06/10 22:46:07;;;;;;;10.30;7.60;;;;;;;16.18;95.77;99125.70;273740;1266;22524;-88
2023/06/10 22:52:09;;;;;;;9.10;7.70;;;;;;;16.17;96.07;99124.84;272454;1267;22292;-88
2023/06/10 22:58:11;;;;;;;9.70;7.60;;;;;;;16.17;96.16;99124.36;271710;1266;22536;-89
2023/06/10 23:04:13;;;;;;;7.50;6.70;;;;;;;16.17;96.46;99123.64;270441;1266;22528;-87
2023/06/10 23:10:15;;;;;;;8.60;7.60;;;;;;;16.17;96.62;99123.56;271344;1268;23077;-86
2023/06/10 23:16:17;;;;;;;9.10;7.40;;;;;;;16.17;96.71;99117.02;273516;1266;22913;-87
2023/06/10 23:22:31;;;;;;;8.40;7.30;;;;;;;16.18;96.90;99108.17;273961;1268;22934;-88
2023/06/10 23:28:57;;;;;;;9.30;8.20;;;;;;;16.15;96.93;99110.17;273860;1265;22427;-88
2023/06/10 23:35:03;;;;;;;11.60;9.00;;;;;;;16.10;97.11;99104.31;273108;1266;22531;-87
2023/06/10 23:41:05;;;;;;;9.70;8.70;;;;;;;16.02;97.22;99103.90;270623;1266;23386;-88
2023/06/10 23:47:07;;;;;;;13.80;10.00;;;;;;;15.94;97.39;99109.89;270298;1266;24622;-87
2023/06/10 23:53:10;;;;;;;9.70;8.10;;;;;;;15.84;97.60;99108.17;270942;1266;22342;-86
2023/06/10 23:59:12;;;;;;;10.60;8.60;;;;;;;15.77;97.98;99108.84;273454;1266;22420;-87
